createdAt,value
2018-12-29T00:00:43.686Z,10.00
2018-12-29T00:03:12.836Z,7.53
2018-12-29T00:05:41.897Z,9.73
2018-12-29T00:08:10.957Z,4.73
2018-12-29T00:10:40.038Z,9.27
2018-12-29T00:13:11.120Z,8.00
2018-12-29T00:15:40.180Z,5.87
2018-12-29T00:18:09.265Z,8.83
2018-12-29T00:20:38.327Z,7.37
2018-12-29T00:23:07.396Z,9.27
2018-12-29T00:25:36.531Z,14.60
2018-12-29T00:28:05.600Z,7.60
2018-12-29T00:30:34.649Z,5.17
2018-12-29T00:33:03.731Z,8.33
2018-12-29T00:35:32.797Z,11.03
2018-12-29T00:38:01.857Z,6.70
2018-12-29T00:40:31.176Z,7.43
2018-12-29T00:43:00.227Z,7.33
2018-12-29T00:45:29.296Z,8.67
2018-12-29T00:47:58.428Z,7.40
2018-12-29T00:50:27.480Z,10.63
2018-12-29T00:52:56.628Z,9.27
2018-12-29T00:55:25.719Z,7.67
2018-12-29T00:57:54.778Z,8.63
2018-12-29T01:00:23.838Z,9.20
2018-12-29T01:03:00.702Z,7.97
2018-12-29T01:05:29.756Z,8.83
2018-12-29T01:07:59.735Z,5.03
2018-12-29T01:10:28.809Z,5.83
2018-12-29T01:13:10.831Z,6.33
2018-12-29T01:15:40.137Z,6.23
2018-12-29T01:18:09.209Z,8.07
2018-12-29T01:20:38.280Z,5.73
2018-12-29T01:23:07.376Z,7.63
2018-12-29T01:25:36.434Z,5.27
2018-12-29T01:28:05.487Z,8.67
2018-12-29T01:30:34.592Z,9.10
2018-12-29T01:33:12.069Z,10.20
2018-12-29T01:35:41.158Z,8.87
2018-12-29T01:38:10.218Z,10.50
2018-12-29T01:40:39.267Z,7.37
2018-12-29T01:43:08.370Z,7.90
2018-12-29T01:45:37.423Z,10.50
2018-12-29T01:48:06.475Z,14.43
2018-12-29T01:50:35.577Z,15.30
2018-12-29T01:55:58.322Z,10.50
2018-12-29T01:58:27.388Z,10.97
2018-12-29T02:00:56.716Z,6.37
2018-12-29T02:03:25.890Z,8.93
2018-12-29T02:05:54.942Z,9.47
2018-12-29T02:08:24.009Z,11.90
2018-12-29T02:10:53.081Z,6.77
2018-12-29T02:13:22.147Z,12.90
2018-12-29T02:15:51.202Z,7.50
2018-12-29T02:18:20.283Z,8.57
2018-12-29T02:20:49.335Z,8.90
2018-12-29T02:23:18.383Z,7.17
2018-12-29T02:25:47.472Z,8.63
2018-12-29T02:28:16.530Z,8.97
2018-12-29T02:30:45.591Z,6.60
2018-12-29T02:33:14.688Z,9.30
2018-12-29T02:35:43.758Z,9.20
2018-12-29T02:38:12.822Z,7.57
2018-12-29T02:40:41.984Z,9.80
2018-12-29T02:46:05.637Z,7.73
2018-12-29T02:48:34.702Z,6.53
2018-12-29T02:51:03.766Z,8.37
2018-12-29T02:53:32.844Z,8.27
2018-12-29T02:56:01.910Z,5.17
2018-12-29T02:58:30.964Z,5.03
2018-12-29T03:01:00.045Z,5.80
2018-12-29T03:03:29.100Z,5.33
2018-12-29T03:05:58.220Z,7.33
2018-12-29T03:08:27.397Z,7.73
2018-12-29T03:10:56.444Z,7.97
2018-12-29T03:13:25.497Z,7.17
2018-12-29T03:15:54.573Z,5.67
2018-12-29T03:18:23.628Z,6.00
2018-12-29T03:20:52.696Z,5.47
2018-12-29T03:23:21.787Z,4.60
2018-12-29T03:25:50.843Z,4.17
2018-12-29T03:28:19.902Z,4.33
2018-12-29T03:30:49.021Z,6.37
2018-12-29T03:33:30.410Z,7.10
2018-12-29T03:35:59.493Z,5.27
2018-12-29T03:38:28.555Z,5.83
2018-12-29T03:40:57.612Z,5.13
2018-12-29T03:43:26.699Z,4.87
2018-12-29T03:45:55.759Z,6.27
2018-12-29T03:48:24.810Z,3.90
2018-12-29T03:50:53.911Z,4.17
2018-12-29T03:53:22.966Z,3.40
2018-12-29T03:55:52.020Z,3.87
2018-12-29T03:58:21.114Z,5.37
2018-12-29T04:00:50.167Z,3.87
2018-12-29T04:03:19.224Z,6.60
2018-12-29T04:05:48.303Z,4.20
2018-12-29T04:08:17.359Z,4.53
2018-12-29T04:10:46.414Z,6.50
2018-12-29T04:13:15.536Z,5.07
2018-12-29T04:15:44.625Z,6.83
2018-12-29T04:18:13.645Z,4.00
2018-12-29T04:20:42.733Z,5.87
2018-12-29T04:23:17.589Z,4.67
2018-12-29T04:25:46.669Z,8.77
2018-12-29T04:28:15.717Z,4.50
2018-12-29T04:30:44.775Z,8.50
2018-12-29T04:33:13.901Z,5.37
2018-12-29T04:35:42.949Z,6.37
2018-12-29T04:38:12.005Z,4.73
2018-12-29T04:40:41.169Z,5.63
2018-12-29T04:43:20.259Z,7.77
2018-12-29T04:45:49.351Z,5.57
2018-12-29T04:48:18.402Z,8.07
2018-12-29T04:50:47.452Z,8.47
2018-12-29T04:53:16.580Z,5.97
2018-12-29T04:55:45.627Z,6.80
2018-12-29T04:58:14.677Z,5.20
2018-12-29T05:00:44.075Z,8.10
2018-12-29T05:03:37.646Z,5.90
2018-12-29T05:06:06.731Z,6.40
2018-12-29T05:08:35.786Z,6.33
2018-12-29T05:11:04.852Z,5.73
2018-12-29T05:16:37.496Z,4.83
2018-12-29T05:19:06.583Z,6.50
2018-12-29T05:21:35.629Z,5.67
2018-12-29T05:24:04.835Z,6.93
2018-12-29T05:26:34.278Z,6.37
2018-12-29T05:29:04.940Z,5.60
2018-12-29T05:31:34.002Z,5.07
2018-12-29T05:34:03.112Z,4.20
2018-12-29T05:36:32.170Z,6.70
2018-12-29T05:39:01.239Z,5.23
2018-12-29T05:41:30.537Z,4.93
2018-12-29T05:43:59.609Z,6.57
2018-12-29T05:46:28.667Z,7.50
2018-12-29T05:48:57.747Z,6.83
2018-12-29T05:51:26.820Z,5.30
2018-12-29T05:53:55.879Z,6.37
2018-12-29T05:56:24.978Z,8.33
2018-12-29T05:59:02.430Z,6.47
2018-12-29T06:01:34.874Z,7.33
2018-12-29T06:04:10.995Z,7.13
2018-12-29T06:06:35.390Z,4.47
2018-12-29T06:09:04.582Z,7.77
2018-12-29T06:11:33.629Z,5.93
2018-12-29T06:14:04.158Z,7.97
2018-12-29T06:16:33.213Z,6.37
2018-12-29T06:19:02.267Z,6.03
2018-12-29T06:21:31.342Z,7.57
2018-12-29T06:24:00.499Z,6.90
2018-12-29T06:26:29.550Z,8.60
2018-12-29T06:28:58.668Z,11.33
2018-12-29T06:31:27.730Z,9.63
2018-12-29T06:33:56.786Z,9.40
2018-12-29T06:36:25.910Z,9.03
2018-12-29T06:38:54.962Z,7.00
2018-12-29T06:41:24.017Z,10.57
2018-12-29T06:43:53.114Z,11.53
2018-12-29T06:46:22.173Z,9.07
2018-12-29T06:48:51.229Z,10.50
2018-12-29T06:51:20.595Z,10.23
2018-12-29T06:53:49.683Z,10.57
2018-12-29T06:56:18.754Z,10.63
2018-12-29T06:58:47.853Z,9.87
2018-12-29T07:01:16.910Z,8.77
2018-12-29T07:03:46.751Z,9.43
2018-12-29T07:06:15.142Z,11.10
2018-12-29T07:08:44.204Z,9.40
2018-12-29T07:11:13.256Z,12.10
2018-12-29T07:13:42.331Z,14.93
2018-12-29T07:16:11.408Z,13.10
2018-12-29T07:18:40.461Z,9.70
2018-12-29T07:21:09.584Z,15.63
2018-12-29T07:23:38.680Z,14.63
2018-12-29T07:26:07.701Z,13.03
2018-12-29T07:28:36.794Z,12.20
2018-12-29T07:31:05.855Z,11.87
2018-12-29T07:33:34.936Z,14.83
2018-12-29T07:36:04.025Z,14.50
2018-12-29T07:38:33.091Z,24.00
2018-12-29T07:41:02.161Z,13.83
2018-12-29T07:43:36.640Z,20.03
2018-12-29T07:46:05.714Z,17.43
2018-12-29T07:48:34.820Z,13.30
2018-12-29T07:51:03.912Z,11.57
2018-12-29T07:53:32.965Z,11.70
2018-12-29T07:56:02.028Z,10.87
2018-12-29T07:58:31.131Z,11.93
2018-12-29T08:01:00.190Z,15.30
2018-12-29T08:03:29.262Z,18.03
2018-12-29T08:05:58.383Z,21.23
2018-12-29T08:08:27.440Z,19.23
2018-12-29T08:10:56.491Z,20.93
2018-12-29T08:13:29.796Z,26.20
2018-12-29T08:15:58.845Z,18.67
2018-12-29T08:18:27.897Z,13.67
2018-12-29T08:20:56.973Z,13.37
2018-12-29T08:23:26.022Z,15.10
2018-12-29T08:25:55.076Z,17.83
2018-12-29T08:28:24.478Z,29.40
2018-12-29T08:30:53.532Z,28.43
2018-12-29T08:33:22.605Z,28.93
2018-12-29T08:35:51.705Z,20.47
2018-12-29T08:38:20.742Z,20.93
2018-12-29T08:40:49.791Z,17.63
2018-12-29T08:43:27.142Z,25.33
2018-12-29T08:45:56.188Z,21.63
2018-12-29T08:48:25.253Z,14.57
2018-12-29T08:50:54.329Z,12.53
2018-12-29T08:53:23.360Z,7.90
2018-12-29T08:55:52.407Z,9.97
2018-12-29T08:58:21.475Z,8.70
2018-12-29T09:00:50.522Z,8.30
2018-12-29T09:03:19.558Z,6.20
2018-12-29T09:05:48.716Z,6.07
2018-12-29T09:08:17.692Z,5.77
2018-12-29T09:10:46.781Z,9.47
2018-12-29T09:13:29.488Z,12.67
2018-12-29T09:15:58.520Z,9.93
2018-12-29T09:18:27.556Z,9.67
2018-12-29T09:20:56.639Z,10.20
2018-12-29T09:23:25.677Z,11.10
2018-12-29T09:25:54.743Z,7.57
2018-12-29T09:28:23.812Z,13.63
2018-12-29T09:30:52.861Z,9.97
2018-12-29T09:33:21.905Z,8.77
2018-12-29T09:35:50.979Z,7.63
2018-12-29T09:38:20.017Z,7.87
2018-12-29T09:40:49.055Z,10.77
2018-12-29T09:43:18.214Z,9.97
2018-12-29T09:45:47.250Z,12.10
2018-12-29T09:48:16.334Z,10.77
2018-12-29T09:50:45.425Z,12.13
2018-12-29T09:53:16.460Z,7.18
2018-12-29T09:55:45.506Z,8.67
2018-12-29T09:58:14.591Z,10.90
2018-12-29T10:00:43.640Z,10.13
2018-12-29T10:03:12.679Z,9.70
2018-12-29T10:05:41.883Z,11.80
2018-12-29T10:08:10.944Z,14.90
2018-12-29T10:10:39.994Z,29.23
2018-12-29T10:16:03.188Z,11.57
2018-12-29T10:18:32.270Z,14.87
2018-12-29T10:21:01.325Z,11.47
2018-12-29T10:23:30.372Z,17.03
2018-12-29T10:25:59.471Z,14.87
2018-12-29T10:28:28.547Z,12.57
2018-12-29T10:30:57.583Z,11.40
2018-12-29T10:33:26.669Z,20.07
2018-12-29T10:35:55.733Z,19.83
2018-12-29T10:38:24.797Z,17.13
2018-12-29T10:40:53.885Z,14.37
2018-12-29T10:43:22.970Z,14.10
2018-12-29T10:45:52.036Z,15.53
2018-12-29T10:48:21.138Z,20.50
2018-12-29T10:50:50.202Z,31.50
2018-12-29T10:53:19.266Z,20.03
2018-12-29T10:55:48.345Z,19.43
2018-12-29T10:58:17.409Z,19.40
2018-12-29T11:00:46.462Z,17.80
2018-12-29T11:03:16.577Z,17.93
2018-12-29T11:05:45.629Z,18.80
2018-12-29T11:08:14.679Z,13.27
2018-12-29T11:10:43.856Z,12.83
2018-12-29T11:13:12.898Z,10.20
2018-12-29T11:15:41.940Z,9.63
2018-12-29T11:18:11.026Z,15.60
2018-12-29T11:20:40.067Z,11.90
2018-12-29T11:23:09.522Z,17.63
2018-12-29T11:25:38.597Z,12.13
2018-12-29T11:28:07.645Z,25.00
2018-12-29T11:30:36.701Z,32.60
2018-12-29T11:33:05.811Z,26.42
2018-12-29T11:35:34.877Z,44.17
2018-12-29T11:38:03.929Z,41.87
2018-12-29T11:40:33.020Z,21.77
2018-12-29T11:43:02.101Z,18.47
2018-12-29T11:45:31.121Z,21.03
2018-12-29T11:48:00.202Z,14.10
2018-12-29T11:50:29.250Z,12.83
2018-12-29T11:53:05.633Z,16.13
2018-12-29T11:55:34.682Z,10.40
2018-12-29T11:58:03.738Z,11.00
2018-12-29T12:00:32.814Z,6.80
2018-12-29T12:03:01.874Z,18.08
2018-12-29T12:05:30.932Z,10.40
2018-12-29T12:08:00.306Z,9.50
2018-12-29T12:10:29.626Z,8.67
2018-12-29T12:13:04.286Z,9.57
2018-12-29T12:15:33.419Z,10.23
2018-12-29T12:18:02.467Z,12.13
2018-12-29T12:20:31.552Z,16.13
2018-12-29T12:23:00.584Z,9.90
2018-12-29T12:25:29.641Z,9.37
2018-12-29T12:27:58.713Z,9.73
2018-12-29T12:30:27.769Z,12.23
2018-12-29T12:32:56.869Z,9.40
2018-12-29T12:35:25.989Z,13.50
2018-12-29T12:37:55.045Z,33.67
2018-12-29T12:40:24.119Z,37.38
2018-12-29T12:45:48.969Z,28.10
2018-12-29T12:48:18.047Z,25.63
2018-12-29T12:50:47.105Z,18.13
2018-12-29T12:53:16.157Z,13.87
2018-12-29T12:55:45.374Z,16.27
2018-12-29T12:58:14.415Z,10.23
2018-12-29T13:00:43.465Z,33.27
2018-12-29T13:03:30.714Z,27.80
2018-12-29T13:05:59.533Z,33.23
2018-12-29T13:08:28.588Z,20.43
2018-12-29T13:10:57.697Z,9.67
2018-12-29T13:13:26.751Z,14.40
2018-12-29T13:15:55.800Z,14.93
2018-12-29T13:18:24.894Z,21.77
2018-12-29T13:20:53.964Z,44.67
2018-12-29T13:23:23.014Z,38.90
2018-12-29T13:25:52.100Z,25.33
2018-12-29T13:28:21.161Z,18.12
2018-12-29T13:30:50.199Z,15.23
2018-12-29T13:33:19.549Z,16.48
2018-12-29T13:35:48.616Z,36.27
2018-12-29T13:38:17.657Z,64.80
2018-12-29T13:40:46.753Z,70.95
2018-12-29T13:46:23.862Z,51.20
2018-12-29T13:48:52.908Z,93.50
2018-12-29T13:51:22.011Z,91.47
2018-12-29T13:53:51.109Z,79.77
2018-12-29T13:56:20.363Z,98.10
2018-12-29T13:58:49.426Z,73.90
2018-12-29T14:01:18.515Z,77.43
2018-12-29T14:03:48.518Z,56.33
2018-12-29T14:06:17.577Z,40.80
2018-12-29T14:08:46.654Z,42.33
2018-12-29T14:11:15.708Z,49.77
2018-12-29T14:13:44.767Z,72.23
2018-12-29T14:16:13.852Z,67.83
2018-12-29T14:18:42.906Z,38.57
2018-12-29T14:21:11.949Z,35.40
2018-12-29T14:23:41.035Z,40.03
2018-12-29T14:26:10.079Z,83.73
2018-12-29T14:28:39.135Z,68.80
2018-12-29T14:31:08.214Z,46.23
2018-12-29T14:33:37.273Z,45.53
2018-12-29T14:36:06.317Z,51.57
2018-12-29T14:38:35.511Z,46.17
2018-12-29T14:41:05.370Z,44.20
2018-12-29T14:43:34.420Z,44.10
2018-12-29T14:46:03.492Z,50.00
2018-12-29T14:48:35.856Z,41.53
2018-12-29T14:51:01.698Z,44.13
2018-12-29T14:53:30.780Z,41.80
2018-12-29T14:55:59.840Z,41.70
2018-12-29T14:58:28.918Z,36.23
2018-12-29T15:00:58.009Z,51.93
2018-12-29T15:03:27.069Z,42.77
2018-12-29T15:05:56.125Z,51.40
2018-12-29T15:08:25.286Z,59.77
2018-12-29T15:10:54.347Z,43.20
2018-12-29T15:13:23.394Z,36.53
2018-12-29T15:15:52.482Z,37.00
2018-12-29T15:18:21.534Z,48.50
2018-12-29T15:20:50.592Z,50.73
2018-12-29T15:23:19.736Z,43.33
2018-12-29T15:25:48.838Z,50.23
2018-12-29T15:28:17.940Z,41.27
2018-12-29T15:30:47.042Z,46.10
2018-12-29T15:33:18.152Z,44.67
2018-12-29T15:35:47.201Z,46.93
2018-12-29T15:38:16.280Z,42.97
2018-12-29T15:40:45.346Z,39.97
2018-12-29T15:43:14.457Z,38.10
2018-12-29T15:45:43.691Z,44.77
2018-12-29T15:48:12.769Z,45.27
2018-12-29T15:50:41.883Z,44.10
2018-12-29T15:53:12.042Z,52.50
2018-12-29T15:55:41.096Z,85.00
2018-12-29T15:58:10.159Z,123.73
2018-12-29T16:00:39.254Z,112.77
2018-12-29T16:03:08.442Z,91.30
2018-12-29T16:05:37.493Z,77.77
2018-12-29T16:08:06.595Z,69.07
2018-12-29T16:10:36.263Z,75.10
2018-12-29T16:13:08.906Z,60.23
2018-12-29T16:15:37.965Z,34.33
2018-12-29T16:18:07.026Z,27.80
2018-12-29T16:20:36.117Z,30.53
2018-12-29T16:23:05.181Z,37.30
2018-12-29T16:25:34.391Z,31.47
2018-12-29T16:28:03.520Z,31.67
2018-12-29T16:30:32.585Z,35.57
2018-12-29T16:33:01.643Z,27.83
2018-12-29T16:35:31.993Z,31.63
2018-12-29T16:38:01.097Z,33.47
2018-12-29T16:40:30.365Z,65.13
2018-12-29T16:42:59.453Z,53.63
2018-12-29T16:45:28.514Z,58.50
2018-12-29T16:47:57.571Z,42.43
2018-12-29T16:50:26.666Z,27.03
2018-12-29T16:52:55.742Z,37.43
2018-12-29T16:55:24.782Z,34.40
2018-12-29T16:57:53.870Z,35.13
2018-12-29T17:00:22.927Z,68.00
2018-12-29T17:02:51.989Z,85.97
2018-12-29T17:05:21.075Z,30.30
2018-12-29T17:07:50.141Z,38.43
2018-12-29T17:10:19.189Z,27.90
2018-12-29T17:12:48.314Z,24.00
2018-12-29T17:15:17.359Z,27.17
2018-12-29T17:17:46.423Z,51.53
2018-12-29T17:20:15.512Z,42.10
2018-12-29T17:22:44.556Z,38.60
2018-12-29T17:25:13.625Z,39.40
2018-12-29T17:27:42.693Z,44.83
2018-12-29T17:30:11.765Z,49.73
2018-12-29T17:32:40.805Z,54.80
2018-12-29T17:35:10.067Z,41.67
2018-12-29T17:37:39.129Z,40.67
2018-12-29T17:40:08.193Z,32.03
2018-12-29T17:42:37.293Z,23.73
2018-12-29T17:45:06.361Z,26.47
2018-12-29T17:47:35.408Z,45.33
2018-12-29T17:50:04.515Z,53.60
2018-12-29T17:52:33.596Z,54.70
2018-12-29T17:55:02.673Z,55.90
2018-12-29T17:57:31.870Z,32.63
2018-12-29T18:00:00.960Z,17.53
2018-12-29T18:02:30.006Z,15.70
2018-12-29T18:04:59.097Z,29.10
2018-12-29T18:07:28.148Z,56.87
2018-12-29T18:09:57.546Z,40.47
2018-12-29T18:12:26.269Z,40.13
2018-12-29T18:14:55.337Z,45.20
2018-12-29T18:17:24.392Z,52.87
2018-12-29T18:19:53.599Z,65.63
2018-12-29T18:22:22.668Z,56.47
2018-12-29T18:24:51.721Z,48.10
2018-12-29T18:27:20.888Z,37.67
2018-12-29T18:29:49.945Z,32.10
2018-12-29T18:32:19.017Z,62.70
2018-12-29T18:34:48.113Z,211.97
2018-12-29T18:37:17.170Z,59.60
2018-12-29T18:39:46.240Z,203.47
2018-12-29T18:42:15.350Z,48.63
2018-12-29T18:44:44.422Z,141.37
2018-12-29T18:47:13.496Z,94.53
2018-12-29T18:49:42.604Z,180.70
2018-12-29T18:52:11.666Z,78.37
2018-12-29T18:54:40.722Z,79.23
2018-12-29T18:57:09.896Z,137.80
2018-12-29T18:59:38.958Z,66.40
2018-12-29T19:02:08.017Z,64.40
2018-12-29T19:04:37.123Z,314.37
2018-12-29T19:07:06.184Z,194.40
2018-12-29T19:09:35.263Z,287.27
2018-12-29T19:12:10.958Z,171.50
2018-12-29T19:14:33.428Z,68.27
2018-12-29T19:17:02.494Z,151.77
2018-12-29T19:19:31.892Z,149.77
2018-12-29T19:22:00.966Z,54.37
2018-12-29T19:24:30.126Z,31.93
2018-12-29T19:26:59.174Z,31.53
2018-12-29T19:29:28.237Z,42.57
2018-12-29T19:31:57.310Z,34.40
2018-12-29T19:34:26.400Z,39.53
2018-12-29T19:36:55.460Z,30.07
2018-12-29T19:39:24.527Z,23.33
2018-12-29T19:41:55.031Z,30.33
2018-12-29T19:44:22.705Z,69.17
2018-12-29T19:46:54.089Z,75.83
2018-12-29T19:49:23.818Z,59.00
2018-12-29T19:51:55.898Z,42.10
2018-12-29T19:54:28.142Z,37.47
2018-12-29T19:56:57.178Z,38.07
2018-12-29T19:59:26.238Z,35.57
2018-12-29T20:01:55.314Z,39.03
2018-12-29T20:04:24.378Z,32.70
2018-12-29T20:06:53.440Z,51.97
2018-12-29T20:09:23.271Z,55.83
2018-12-29T20:11:52.337Z,33.33
2018-12-29T20:14:21.392Z,28.10
2018-12-29T20:16:50.467Z,31.03
2018-12-29T20:19:19.527Z,28.03
2018-12-29T20:21:48.605Z,31.87
2018-12-29T20:24:17.692Z,33.30
2018-12-29T20:26:46.748Z,36.40
2018-12-29T20:29:15.813Z,32.17
2018-12-29T20:31:45.052Z,34.73
2018-12-29T20:34:14.105Z,46.70
2018-12-29T20:36:43.169Z,39.00
2018-12-29T20:39:12.251Z,49.77
2018-12-29T20:41:41.317Z,49.37
2018-12-29T20:44:10.378Z,71.90
2018-12-29T20:46:39.456Z,91.63
2018-12-29T20:49:08.505Z,66.93
2018-12-29T20:51:37.553Z,83.93
2018-12-29T20:54:06.665Z,136.83
2018-12-29T20:56:35.728Z,190.93
2018-12-29T20:59:04.788Z,88.63
2018-12-29T21:01:33.876Z,86.27
2018-12-29T21:04:02.928Z,56.73
2018-12-29T21:06:31.993Z,66.60
2018-12-29T21:09:01.088Z,76.07
2018-12-29T21:11:30.155Z,81.67
2018-12-29T21:13:59.207Z,56.27
2018-12-29T21:16:28.329Z,80.40
2018-12-29T21:18:57.407Z,91.87
2018-12-29T21:21:26.469Z,88.17
2018-12-29T21:23:55.627Z,68.40
2018-12-29T21:26:24.697Z,66.50
2018-12-29T21:28:53.762Z,58.77
2018-12-29T21:31:22.846Z,53.77
2018-12-29T21:33:51.910Z,50.43
2018-12-29T21:36:20.968Z,40.30
2018-12-29T21:38:50.063Z,30.00
2018-12-29T21:41:19.303Z,47.17
2018-12-29T21:43:48.357Z,47.63
2018-12-29T21:46:17.444Z,57.93
2018-12-29T21:48:46.497Z,49.43
2018-12-29T21:51:15.569Z,43.80
2018-12-29T21:53:44.658Z,45.17
2018-12-29T21:56:13.709Z,56.07
2018-12-29T21:58:42.765Z,50.17
2018-12-29T22:01:12.080Z,59.70
2018-12-29T22:03:41.140Z,52.43
2018-12-29T22:06:10.257Z,35.43
2018-12-29T22:08:39.288Z,32.97
2018-12-29T22:11:08.337Z,41.23
2018-12-29T22:13:37.390Z,40.60
2018-12-29T22:16:06.554Z,44.43
2018-12-29T22:18:35.618Z,45.13
2018-12-29T22:21:04.677Z,47.90
2018-12-29T22:23:51.333Z,41.80
2018-12-29T22:26:20.504Z,37.13
2018-12-29T22:28:49.571Z,36.90
2018-12-29T22:31:18.686Z,41.63
2018-12-29T22:33:47.769Z,42.40
2018-12-29T22:36:16.819Z,41.73
2018-12-29T22:38:45.907Z,38.77
2018-12-29T22:41:14.963Z,38.53
2018-12-29T22:43:44.029Z,39.70
2018-12-29T22:46:13.197Z,33.57
2018-12-29T22:48:42.263Z,35.90
2018-12-29T22:51:11.318Z,37.27
2018-12-29T22:53:40.407Z,33.77
2018-12-29T22:56:09.448Z,28.33
2018-12-29T22:58:38.518Z,30.67
2018-12-29T23:01:07.598Z,31.27
2018-12-29T23:03:36.677Z,33.93
2018-12-29T23:06:05.759Z,35.30
2018-12-29T23:08:34.953Z,37.27
2018-12-29T23:11:04.007Z,37.10
2018-12-29T23:13:33.069Z,34.13
2018-12-29T23:16:02.239Z,38.60
2018-12-29T23:18:31.288Z,37.73
2018-12-29T23:21:00.342Z,36.30
2018-12-29T23:23:29.422Z,33.83
2018-12-29T23:25:58.486Z,40.00
2018-12-29T23:28:27.548Z,38.50
2018-12-29T23:30:56.660Z,35.83
2018-12-29T23:33:25.717Z,34.83
2018-12-29T23:35:54.794Z,36.50
2018-12-29T23:38:23.878Z,46.17
2018-12-29T23:40:52.941Z,39.33
2018-12-29T23:43:25.658Z,36.27
2018-12-29T23:45:54.719Z,38.23
2018-12-29T23:48:23.766Z,39.87
2018-12-29T23:51:05.213Z,37.10
2018-12-29T23:53:21.944Z,35.00
2018-12-29T23:55:50.997Z,36.53
2018-12-29T23:58:20.080Z,37.27
